VHHH/HKG METAR and TAF weather

Enter ICAO airport designator
Station Type Date Time Source
VHHH METAR 2019/12/11 12:00 UTC NOAA

VHHH 111200Z 08011KT CAVOK 21/08 Q1018 NOSIG


Station Type Date Time Source
VHHH Decoded METAR 2019/12/11 12:00 UTC NOAA

Hong Kong Inter-National Airport, Hong Kong (VHHH) 22-20N 114-11E 24M
Dec 11, 2019 - 07:00 AM EST / 2019.12.11 1200 UTC
Wind: from the E (080 degrees) at 13 MPH (11 KT):0
Visibility: greater than 7 mile(s):0
Temperature: 69 F (21 C)
Dew Point: 46 F (8 C)
Relative Humidity: 43%
Pressure (altimeter): 30.06 in. Hg (1018 hPa)
ob: VHHH 111200Z 08011KT CAVOK 21/08 Q1018 NOSIG
cycle: 12

Station Type Date Time Source
VHHH TAF 2019/12/11 12:23 UTC NOAA

TAF VHHH 111100Z 1112/1218 10010KT 9000 FEW040 TX22/1206Z TN17/1123Z

Example: see airport list